sensor_id;sensor_type;location;lat;lon;timestamp;P1;durP1;ratioP1;P2;durP2;ratioP2
6280;SDS011;3173;48.204;11.612;2023-01-20T00:00:26;10.53;;;5.50;;
6280;SDS011;3173;48.204;11.612;2023-01-20T00:02:52;9.70;;;5.60;;
6280;SDS011;3173;48.204;11.612;2023-01-20T00:05:18;10.20;;;5.57;;
6280;SDS011;3173;48.204;11.612;2023-01-20T00:07:44;10.43;;;5.73;;
6280;SDS011;3173;48.204;11.612;2023-01-20T00:10:10;11.85;;;6.05;;
6280;SDS011;3173;48.204;11.612;2023-01-20T00:12:36;10.27;;;6.03;;
6280;SDS011;3173;48.204;11.612;2023-01-20T00:15:02;12.00;;;6.80;;
6280;SDS011;3173;48.204;11.612;2023-01-20T00:17:28;13.55;;;5.93;;
6280;SDS011;3173;48.204;11.612;2023-01-20T00:19:55;13.50;;;6.70;;
6280;SDS011;3173;48.204;11.612;2023-01-20T00:22:21;13.30;;;7.38;;
6280;SDS011;3173;48.204;11.612;2023-01-20T00:24:47;14.38;;;7.68;;
6280;SDS011;3173;48.204;11.612;2023-01-20T00:27:14;15.80;;;8.77;;
6280;SDS011;3173;48.204;11.612;2023-01-20T00:29:40;14.52;;;6.50;;
6280;SDS011;3173;48.204;11.612;2023-01-20T00:32:08;17.20;;;7.75;;
6280;SDS011;3173;48.204;11.612;2023-01-20T00:34:35;12.90;;;6.65;;
6280;SDS011;3173;48.204;11.612;2023-01-20T00:37:01;10.75;;;7.00;;
6280;SDS011;3173;48.204;11.612;2023-01-20T00:39:27;12.88;;;6.07;;
6280;SDS011;3173;48.204;11.612;2023-01-20T00:41:53;14.13;;;6.82;;
6280;SDS011;3173;48.204;11.612;2023-01-20T00:44:19;13.70;;;7.45;;
6280;SDS011;3173;48.204;11.612;2023-01-20T00:46:45;18.10;;;7.00;;
6280;SDS011;3173;48.204;11.612;2023-01-20T00:49:11;11.65;;;7.10;;
6280;SDS011;3173;48.204;11.612;2023-01-20T00:51:38;12.00;;;6.40;;
6280;SDS011;3173;48.204;11.612;2023-01-20T00:54:04;13.73;;;7.65;;
6280;SDS011;3173;48.204;11.612;2023-01-20T00:56:30;12.65;;;7.15;;
6280;SDS011;3173;48.204;11.612;2023-01-20T00:58:56;10.75;;;6.68;;
6280;SDS011;3173;48.204;11.612;2023-01-20T01:01:22;15.25;;;7.05;;
6280;SDS011;3173;48.204;11.612;2023-01-20T01:03:50;11.95;;;6.00;;
6280;SDS011;3173;48.204;11.612;2023-01-20T01:06:18;11.70;;;6.07;;
6280;SDS011;3173;48.204;11.612;2023-01-20T01:08:45;13.15;;;6.63;;
6280;SDS011;3173;48.204;11.612;2023-01-20T01:11:11;12.18;;;7.80;;
6280;SDS011;3173;48.204;11.612;2023-01-20T01:13:37;11.90;;;6.28;;
6280;SDS011;3173;48.204;11.612;2023-01-20T01:16:06;9.05;;;5.88;;
6280;SDS011;3173;48.204;11.612;2023-01-20T01:18:51;18.08;;;7.28;;
6280;SDS011;3173;48.204;11.612;2023-01-20T01:21:18;10.98;;;5.95;;
6280;SDS011;3173;48.204;11.612;2023-01-20T01:23:44;12.63;;;5.60;;
6280;SDS011;3173;48.204;11.612;2023-01-20T01:26:11;8.60;;;4.95;;
6280;SDS011;3173;48.204;11.612;2023-01-20T01:28:37;10.57;;;6.30;;
6280;SDS011;3173;48.204;11.612;2023-01-20T01:31:03;10.93;;;5.55;;
6280;SDS011;3173;48.204;11.612;2023-01-20T01:33:30;13.75;;;6.78;;
6280;SDS011;3173;48.204;11.612;2023-01-20T01:35:56;11.13;;;5.55;;
6280;SDS011;3173;48.204;11.612;2023-01-20T01:38:23;9.80;;;6.05;;
6280;SDS011;3173;48.204;11.612;2023-01-20T01:40:50;7.55;;;5.25;;
6280;SDS011;3173;48.204;11.612;2023-01-20T01:43:23;11.13;;;6.45;;
6280;SDS011;3173;48.204;11.612;2023-01-20T01:45:49;8.40;;;5.15;;
6280;SDS011;3173;48.204;11.612;2023-01-20T01:48:16;9.35;;;5.13;;
6280;SDS011;3173;48.204;11.612;2023-01-20T01:50:49;12.27;;;5.10;;
6280;SDS011;3173;48.204;11.612;2023-01-20T01:53:18;11.55;;;6.25;;
6280;SDS011;3173;48.204;11.612;2023-01-20T01:55:46;10.55;;;6.53;;
6280;SDS011;3173;48.204;11.612;2023-01-20T01:58:15;9.65;;;5.50;;
6280;SDS011;3173;48.204;11.612;2023-01-20T02:00:42;12.77;;;5.88;;
6280;SDS011;3173;48.204;11.612;2023-01-20T02:03:08;10.13;;;5.32;;
6280;SDS011;3173;48.204;11.612;2023-01-20T02:05:35;10.25;;;5.80;;
6280;SDS011;3173;48.204;11.612;2023-01-20T02:08:02;10.25;;;6.00;;
6280;SDS011;3173;48.204;11.612;2023-01-20T02:10:28;10.38;;;5.93;;
6280;SDS011;3173;48.204;11.612;2023-01-20T02:12:55;9.50;;;4.95;;
6280;SDS011;3173;48.204;11.612;2023-01-20T02:15:25;11.45;;;6.30;;
6280;SDS011;3173;48.204;11.612;2023-01-20T02:21:13;13.15;;;6.50;;
6280;SDS011;3173;48.204;11.612;2023-01-20T02:23:53;10.63;;;5.68;;
6280;SDS011;3173;48.204;11.612;2023-01-20T02:36:59;11.43;;;6.00;;
6280;SDS011;3173;48.204;11.612;2023-01-20T02:42:13;9.93;;;5.70;;
6280;SDS011;3173;48.204;11.612;2023-01-20T02:44:46;8.98;;;4.78;;
6280;SDS011;3173;48.204;11.612;2023-01-20T02:47:33;8.32;;;5.47;;
6280;SDS011;3173;48.204;11.612;2023-01-20T02:52:31;8.88;;;5.32;;
6280;SDS011;3173;48.204;11.612;2023-01-20T02:55:01;8.93;;;5.55;;
6280;SDS011;3173;48.204;11.612;2023-01-20T02:57:29;9.88;;;5.18;;
6280;SDS011;3173;48.204;11.612;2023-01-20T02:59:59;9.35;;;4.93;;
6280;SDS011;3173;48.204;11.612;2023-01-20T03:02:26;9.27;;;5.25;;
6280;SDS011;3173;48.204;11.612;2023-01-20T03:05:27;10.13;;;5.10;;
6280;SDS011;3173;48.204;11.612;2023-01-20T03:07:45;9.93;;;4.43;;
6280;SDS011;3173;48.204;11.612;2023-01-20T03:10:15;9.05;;;5.15;;
6280;SDS011;3173;48.204;11.612;2023-01-20T03:12:45;10.05;;;5.20;;
6280;SDS011;3173;48.204;11.612;2023-01-20T03:15:12;7.78;;;4.28;;
6280;SDS011;3173;48.204;11.612;2023-01-20T03:17:39;10.07;;;5.30;;
6280;SDS011;3173;48.204;11.612;2023-01-20T03:20:05;8.65;;;5.18;;
6280;SDS011;3173;48.204;11.612;2023-01-20T03:22:32;7.15;;;4.63;;
6280;SDS011;3173;48.204;11.612;2023-01-20T03:24:58;8.23;;;5.20;;
6280;SDS011;3173;48.204;11.612;2023-01-20T03:27:24;9.82;;;5.25;;
6280;SDS011;3173;48.204;11.612;2023-01-20T03:29:51;11.18;;;5.40;;
6280;SDS011;3173;48.204;11.612;2023-01-20T03:32:17;9.57;;;5.07;;
6280;SDS011;3173;48.204;11.612;2023-01-20T03:34:50;9.18;;;4.80;;
6280;SDS011;3173;48.204;11.612;2023-01-20T03:37:16;7.57;;;4.70;;
6280;SDS011;3173;48.204;11.612;2023-01-20T03:39:42;8.25;;;5.03;;
6280;SDS011;3173;48.204;11.612;2023-01-20T03:52:23;10.80;;;5.05;;
6280;SDS011;3173;48.204;11.612;2023-01-20T03:54:51;10.52;;;5.40;;
6280;SDS011;3173;48.204;11.612;2023-01-20T03:57:24;8.23;;;5.32;;
6280;SDS011;3173;48.204;11.612;2023-01-20T03:59:50;14.32;;;4.50;;
6280;SDS011;3173;48.204;11.612;2023-01-20T04:02:17;8.15;;;5.07;;
6280;SDS011;3173;48.204;11.612;2023-01-20T04:04:44;8.18;;;4.60;;
6280;SDS011;3173;48.204;11.612;2023-01-20T04:07:13;8.77;;;4.88;;
6280;SDS011;3173;48.204;11.612;2023-01-20T04:09:43;12.40;;;6.38;;
6280;SDS011;3173;48.204;11.612;2023-01-20T04:12:10;9.80;;;5.65;;
6280;SDS011;3173;48.204;11.612;2023-01-20T04:14:36;11.80;;;6.57;;
6280;SDS011;3173;48.204;11.612;2023-01-20T04:17:02;8.15;;;4.80;;
6280;SDS011;3173;48.204;11.612;2023-01-20T04:19:31;7.38;;;4.80;;
6280;SDS011;3173;48.204;11.612;2023-01-20T04:26:52;8.07;;;4.28;;
6280;SDS011;3173;48.204;11.612;2023-01-20T04:29:18;7.97;;;4.80;;
6280;SDS011;3173;48.204;11.612;2023-01-20T04:31:44;7.07;;;4.85;;
6280;SDS011;3173;48.204;11.612;2023-01-20T04:34:13;7.45;;;4.22;;
6280;SDS011;3173;48.204;11.612;2023-01-20T04:36:40;6.80;;;3.53;;
6280;SDS011;3173;48.204;11.612;2023-01-20T04:39:06;10.85;;;4.05;;
6280;SDS011;3173;48.204;11.612;2023-01-20T04:41:33;7.15;;;4.28;;
6280;SDS011;3173;48.204;11.612;2023-01-20T04:43:59;10.25;;;4.30;;
6280;SDS011;3173;48.204;11.612;2023-01-20T04:46:25;10.10;;;4.10;;
6280;SDS011;3173;48.204;11.612;2023-01-20T04:48:51;6.95;;;4.03;;
6280;SDS011;3173;48.204;11.612;2023-01-20T04:51:17;7.40;;;3.88;;
6280;SDS011;3173;48.204;11.612;2023-01-20T04:53:43;9.50;;;4.55;;
6280;SDS011;3173;48.204;11.612;2023-01-20T04:56:13;10.55;;;4.63;;
6280;SDS011;3173;48.204;11.612;2023-01-20T04:58:40;7.15;;;4.68;;
6280;SDS011;3173;48.204;11.612;2023-01-20T05:01:07;8.88;;;4.55;;
6280;SDS011;3173;48.204;11.612;2023-01-20T05:03:33;8.35;;;4.50;;
6280;SDS011;3173;48.204;11.612;2023-01-20T05:05:59;13.18;;;5.43;;
6280;SDS011;3173;48.204;11.612;2023-01-20T05:08:26;6.43;;;5.20;;
6280;SDS011;3173;48.204;11.612;2023-01-20T05:10:52;10.07;;;5.00;;
6280;SDS011;3173;48.204;11.612;2023-01-20T05:13:18;9.17;;;5.73;;
6280;SDS011;3173;48.204;11.612;2023-01-20T05:15:44;8.65;;;5.50;;
6280;SDS011;3173;48.204;11.612;2023-01-20T05:18:10;7.93;;;5.80;;
6280;SDS011;3173;48.204;11.612;2023-01-20T05:20:36;12.63;;;6.25;;
6280;SDS011;3173;48.204;11.612;2023-01-20T05:23:02;8.63;;;5.25;;
6280;SDS011;3173;48.204;11.612;2023-01-20T05:25:28;9.48;;;6.18;;
6280;SDS011;3173;48.204;11.612;2023-01-20T05:27:55;8.23;;;5.72;;
6280;SDS011;3173;48.204;11.612;2023-01-20T05:30:21;9.20;;;6.22;;
6280;SDS011;3173;48.204;11.612;2023-01-20T05:32:50;10.40;;;5.97;;
6280;SDS011;3173;48.204;11.612;2023-01-20T05:35:16;11.30;;;6.90;;
6280;SDS011;3173;48.204;11.612;2023-01-20T05:37:42;10.27;;;6.00;;
6280;SDS011;3173;48.204;11.612;2023-01-20T05:40:09;9.60;;;5.75;;
6280;SDS011;3173;48.204;11.612;2023-01-20T05:42:35;9.68;;;5.97;;
6280;SDS011;3173;48.204;11.612;2023-01-20T05:45:02;8.50;;;5.25;;
6280;SDS011;3173;48.204;11.612;2023-01-20T05:47:28;9.30;;;5.25;;
6280;SDS011;3173;48.204;11.612;2023-01-20T05:49:54;9.68;;;5.45;;
6280;SDS011;3173;48.204;11.612;2023-01-20T05:52:20;12.02;;;5.72;;
6280;SDS011;3173;48.204;11.612;2023-01-20T05:54:46;10.45;;;6.28;;
6280;SDS011;3173;48.204;11.612;2023-01-20T05:57:12;10.50;;;6.13;;
6280;SDS011;3173;48.204;11.612;2023-01-20T05:59:43;9.57;;;6.43;;
6280;SDS011;3173;48.204;11.612;2023-01-20T06:02:11;10.10;;;6.15;;
6280;SDS011;3173;48.204;11.612;2023-01-20T06:04:40;10.52;;;6.80;;
6280;SDS011;3173;48.204;11.612;2023-01-20T06:07:06;9.82;;;5.75;;
6280;SDS011;3173;48.204;11.612;2023-01-20T06:09:32;11.98;;;6.25;;
6280;SDS011;3173;48.204;11.612;2023-01-20T06:11:58;9.48;;;6.15;;
6280;SDS011;3173;48.204;11.612;2023-01-20T06:14:24;11.53;;;7.07;;
6280;SDS011;3173;48.204;11.612;2023-01-20T06:16:50;9.93;;;6.10;;
6280;SDS011;3173;48.204;11.612;2023-01-20T06:19:16;11.77;;;6.95;;
6280;SDS011;3173;48.204;11.612;2023-01-20T06:21:42;10.23;;;6.60;;
6280;SDS011;3173;48.204;11.612;2023-01-20T06:24:08;11.27;;;6.80;;
6280;SDS011;3173;48.204;11.612;2023-01-20T06:26:34;15.93;;;7.18;;
6280;SDS011;3173;48.204;11.612;2023-01-20T06:29:01;13.07;;;6.70;;
6280;SDS011;3173;48.204;11.612;2023-01-20T06:31:27;10.88;;;6.40;;
6280;SDS011;3173;48.204;11.612;2023-01-20T06:33:53;11.27;;;7.03;;
6280;SDS011;3173;48.204;11.612;2023-01-20T06:36:20;15.88;;;6.55;;
6280;SDS011;3173;48.204;11.612;2023-01-20T06:38:46;13.60;;;8.10;;
6280;SDS011;3173;48.204;11.612;2023-01-20T06:41:15;13.00;;;7.80;;
6280;SDS011;3173;48.204;11.612;2023-01-20T06:43:41;13.90;;;7.60;;
6280;SDS011;3173;48.204;11.612;2023-01-20T06:46:12;14.45;;;7.90;;
6280;SDS011;3173;48.204;11.612;2023-01-20T06:48:38;12.93;;;7.97;;
6280;SDS011;3173;48.204;11.612;2023-01-20T06:51:06;13.77;;;7.80;;
6280;SDS011;3173;48.204;11.612;2023-01-20T06:53:32;13.95;;;8.70;;
6280;SDS011;3173;48.204;11.612;2023-01-20T06:55:59;14.68;;;7.85;;
6280;SDS011;3173;48.204;11.612;2023-01-20T06:58:25;14.68;;;7.80;;
6280;SDS011;3173;48.204;11.612;2023-01-20T07:00:53;16.48;;;8.20;;
6280;SDS011;3173;48.204;11.612;2023-01-20T07:03:19;13.98;;;8.35;;
6280;SDS011;3173;48.204;11.612;2023-01-20T07:06:13;13.95;;;8.25;;
6280;SDS011;3173;48.204;11.612;2023-01-20T07:08:32;13.98;;;9.05;;
6280;SDS011;3173;48.204;11.612;2023-01-20T07:10:58;16.02;;;9.23;;
6280;SDS011;3173;48.204;11.612;2023-01-20T07:13:24;13.70;;;8.65;;
6280;SDS011;3173;48.204;11.612;2023-01-20T07:15:50;14.02;;;9.25;;
6280;SDS011;3173;48.204;11.612;2023-01-20T07:18:17;15.23;;;8.70;;
6280;SDS011;3173;48.204;11.612;2023-01-20T07:20:43;17.52;;;9.07;;
6280;SDS011;3173;48.204;11.612;2023-01-20T07:23:09;14.73;;;8.77;;
6280;SDS011;3173;48.204;11.612;2023-01-20T07:25:35;13.60;;;7.80;;
6280;SDS011;3173;48.204;11.612;2023-01-20T07:28:03;12.40;;;8.98;;
6280;SDS011;3173;48.204;11.612;2023-01-20T07:30:29;16.23;;;8.77;;
6280;SDS011;3173;48.204;11.612;2023-01-20T07:32:55;14.65;;;8.57;;
6280;SDS011;3173;48.204;11.612;2023-01-20T07:35:21;17.15;;;9.05;;
6280;SDS011;3173;48.204;11.612;2023-01-20T07:37:47;18.45;;;9.02;;
6280;SDS011;3173;48.204;11.612;2023-01-20T07:40:13;14.90;;;9.50;;
6280;SDS011;3173;48.204;11.612;2023-01-20T07:42:40;15.90;;;9.63;;
6280;SDS011;3173;48.204;11.612;2023-01-20T07:45:06;14.95;;;8.40;;
6280;SDS011;3173;48.204;11.612;2023-01-20T07:47:32;15.90;;;9.60;;
6280;SDS011;3173;48.204;11.612;2023-01-20T07:49:58;14.98;;;8.90;;
6280;SDS011;3173;48.204;11.612;2023-01-20T07:52:24;15.20;;;8.97;;
6280;SDS011;3173;48.204;11.612;2023-01-20T07:54:50;10.77;;;7.45;;
6280;SDS011;3173;48.204;11.612;2023-01-20T07:57:16;14.67;;;8.10;;
6280;SDS011;3173;48.204;11.612;2023-01-20T07:59:42;15.50;;;8.97;;
6280;SDS011;3173;48.204;11.612;2023-01-20T08:02:08;13.37;;;8.90;;
6280;SDS011;3173;48.204;11.612;2023-01-20T08:04:34;13.65;;;7.57;;
6280;SDS011;3173;48.204;11.612;2023-01-20T08:07:01;12.10;;;7.23;;
6280;SDS011;3173;48.204;11.612;2023-01-20T08:09:27;11.48;;;7.00;;
6280;SDS011;3173;48.204;11.612;2023-01-20T08:11:53;11.57;;;6.65;;
6280;SDS011;3173;48.204;11.612;2023-01-20T08:14:20;13.13;;;7.70;;
6280;SDS011;3173;48.204;11.612;2023-01-20T08:16:46;9.70;;;6.93;;
6280;SDS011;3173;48.204;11.612;2023-01-20T08:19:12;15.52;;;7.60;;
6280;SDS011;3173;48.204;11.612;2023-01-20T08:21:38;9.60;;;6.70;;
6280;SDS011;3173;48.204;11.612;2023-01-20T08:24:04;14.75;;;7.63;;
6280;SDS011;3173;48.204;11.612;2023-01-20T08:26:31;10.65;;;7.07;;
6280;SDS011;3173;48.204;11.612;2023-01-20T08:29:01;13.80;;;8.68;;
6280;SDS011;3173;48.204;11.612;2023-01-20T08:31:27;13.90;;;7.80;;
6280;SDS011;3173;48.204;11.612;2023-01-20T08:33:54;12.25;;;7.57;;
6280;SDS011;3173;48.204;11.612;2023-01-20T08:36:21;14.25;;;7.60;;
6280;SDS011;3173;48.204;11.612;2023-01-20T08:38:47;13.00;;;7.35;;
6280;SDS011;3173;48.204;11.612;2023-01-20T08:41:18;13.98;;;7.22;;
6280;SDS011;3173;48.204;11.612;2023-01-20T08:43:44;15.95;;;8.27;;
6280;SDS011;3173;48.204;11.612;2023-01-20T08:46:12;12.15;;;7.53;;
6280;SDS011;3173;48.204;11.612;2023-01-20T08:48:39;13.48;;;7.75;;
6280;SDS011;3173;48.204;11.612;2023-01-20T08:51:06;9.48;;;6.25;;
6280;SDS011;3173;48.204;11.612;2023-01-20T08:53:33;13.10;;;7.97;;
6280;SDS011;3173;48.204;11.612;2023-01-20T08:56:00;12.50;;;7.05;;
6280;SDS011;3173;48.204;11.612;2023-01-20T08:58:27;11.90;;;7.55;;
6280;SDS011;3173;48.204;11.612;2023-01-20T09:00:54;10.75;;;6.95;;
6280;SDS011;3173;48.204;11.612;2023-01-20T09:03:20;14.80;;;8.07;;
6280;SDS011;3173;48.204;11.612;2023-01-20T09:05:47;11.05;;;7.10;;
6280;SDS011;3173;48.204;11.612;2023-01-20T09:08:13;12.93;;;7.18;;
6280;SDS011;3173;48.204;11.612;2023-01-20T09:10:41;11.00;;;7.20;;
6280;SDS011;3173;48.204;11.612;2023-01-20T09:13:07;12.15;;;7.35;;
6280;SDS011;3173;48.204;11.612;2023-01-20T09:15:33;12.90;;;7.53;;
6280;SDS011;3173;48.204;11.612;2023-01-20T09:17:59;12.45;;;7.25;;
6280;SDS011;3173;48.204;11.612;2023-01-20T09:20:25;10.23;;;5.97;;
6280;SDS011;3173;48.204;11.612;2023-01-20T09:22:53;13.30;;;6.75;;
6280;SDS011;3173;48.204;11.612;2023-01-20T09:25:20;8.65;;;5.38;;
6280;SDS011;3173;48.204;11.612;2023-01-20T09:27:46;10.45;;;5.93;;
6280;SDS011;3173;48.204;11.612;2023-01-20T09:30:12;10.25;;;5.85;;
6280;SDS011;3173;48.204;11.612;2023-01-20T09:32:38;11.95;;;6.78;;
6280;SDS011;3173;48.204;11.612;2023-01-20T09:35:04;14.32;;;6.20;;
6280;SDS011;3173;48.204;11.612;2023-01-20T09:37:31;9.35;;;5.95;;
6280;SDS011;3173;48.204;11.612;2023-01-20T09:40:20;9.80;;;5.20;;
6280;SDS011;3173;48.204;11.612;2023-01-20T09:45:55;10.52;;;5.22;;
6280;SDS011;3173;48.204;11.612;2023-01-20T09:51:33;8.60;;;6.35;;
6280;SDS011;3173;48.204;11.612;2023-01-20T09:54:22;7.15;;;4.80;;
6280;SDS011;3173;48.204;11.612;2023-01-20T09:56:50;11.57;;;5.85;;
6280;SDS011;3173;48.204;11.612;2023-01-20T09:59:26;11.45;;;5.30;;
6280;SDS011;3173;48.204;11.612;2023-01-20T10:01:55;14.35;;;6.13;;
6280;SDS011;3173;48.204;11.612;2023-01-20T10:04:36;6.97;;;4.60;;
6280;SDS011;3173;48.204;11.612;2023-01-20T10:12:02;6.35;;;4.63;;
6280;SDS011;3173;48.204;11.612;2023-01-20T10:14:31;15.95;;;5.75;;
6280;SDS011;3173;48.204;11.612;2023-01-20T10:17:03;7.50;;;4.63;;
6280;SDS011;3173;48.204;11.612;2023-01-20T10:19:34;7.95;;;4.82;;
6280;SDS011;3173;48.204;11.612;2023-01-20T10:25:21;8.65;;;4.07;;
6280;SDS011;3173;48.204;11.612;2023-01-20T10:27:41;8.82;;;5.38;;
6280;SDS011;3173;48.204;11.612;2023-01-20T10:30:10;8.80;;;4.90;;
6280;SDS011;3173;48.204;11.612;2023-01-20T10:32:38;12.00;;;2.92;;
6280;SDS011;3173;48.204;11.612;2023-01-20T10:35:11;5.50;;;3.80;;
6280;SDS011;3173;48.204;11.612;2023-01-20T10:37:39;7.55;;;3.80;;
6280;SDS011;3173;48.204;11.612;2023-01-20T10:43:12;6.45;;;4.25;;
6280;SDS011;3173;48.204;11.612;2023-01-20T10:50:57;6.63;;;3.88;;
6280;SDS011;3173;48.204;11.612;2023-01-20T10:53:32;5.90;;;3.40;;
6280;SDS011;3173;48.204;11.612;2023-01-20T10:56:11;4.53;;;3.40;;
6280;SDS011;3173;48.204;11.612;2023-01-20T10:58:41;5.95;;;3.70;;
6280;SDS011;3173;48.204;11.612;2023-01-20T11:01:15;5.75;;;3.55;;
6280;SDS011;3173;48.204;11.612;2023-01-20T11:03:43;5.60;;;3.90;;
6280;SDS011;3173;48.204;11.612;2023-01-20T11:06:30;6.15;;;4.57;;
6280;SDS011;3173;48.204;11.612;2023-01-20T11:08:56;7.30;;;4.45;;
6280;SDS011;3173;48.204;11.612;2023-01-20T11:11:23;7.85;;;4.97;;
6280;SDS011;3173;48.204;11.612;2023-01-20T11:13:50;8.68;;;4.82;;
6280;SDS011;3173;48.204;11.612;2023-01-20T11:16:26;7.35;;;4.78;;
6280;SDS011;3173;48.204;11.612;2023-01-20T11:18:57;7.18;;;4.43;;
6280;SDS011;3173;48.204;11.612;2023-01-20T11:21:23;6.88;;;4.63;;
6280;SDS011;3173;48.204;11.612;2023-01-20T11:23:50;6.70;;;5.00;;
6280;SDS011;3173;48.204;11.612;2023-01-20T11:26:26;7.78;;;4.70;;
6280;SDS011;3173;48.204;11.612;2023-01-20T11:29:35;8.05;;;5.70;;
6280;SDS011;3173;48.204;11.612;2023-01-20T11:31:49;7.88;;;5.70;;
6280;SDS011;3173;48.204;11.612;2023-01-20T11:36:42;9.48;;;5.40;;
6280;SDS011;3173;48.204;11.612;2023-01-20T11:39:22;5.80;;;4.68;;
6280;SDS011;3173;48.204;11.612;2023-01-20T11:41:48;7.85;;;5.43;;
6280;SDS011;3173;48.204;11.612;2023-01-20T11:44:40;6.20;;;4.87;;
6280;SDS011;3173;48.204;11.612;2023-01-20T11:47:20;7.67;;;5.03;;
6280;SDS011;3173;48.204;11.612;2023-01-20T11:55:08;10.87;;;5.53;;
6280;SDS011;3173;48.204;11.612;2023-01-20T11:57:35;8.53;;;5.90;;
6280;SDS011;3173;48.204;11.612;2023-01-20T12:00:02;7.70;;;5.97;;
6280;SDS011;3173;48.204;11.612;2023-01-20T12:02:28;9.63;;;5.93;;
6280;SDS011;3173;48.204;11.612;2023-01-20T12:05:12;8.57;;;6.27;;
6280;SDS011;3173;48.204;11.612;2023-01-20T12:07:46;10.90;;;5.40;;
6280;SDS011;3173;48.204;11.612;2023-01-20T12:10:15;11.53;;;6.07;;
6280;SDS011;3173;48.204;11.612;2023-01-20T12:12:50;10.55;;;6.15;;
6280;SDS011;3173;48.204;11.612;2023-01-20T12:15:18;10.27;;;5.87;;
6280;SDS011;3173;48.204;11.612;2023-01-20T12:18:05;12.10;;;6.40;;
6280;SDS011;3173;48.204;11.612;2023-01-20T12:20:38;14.80;;;7.10;;
6280;SDS011;3173;48.204;11.612;2023-01-20T12:23:32;8.70;;;6.43;;
6280;SDS011;3173;48.204;11.612;2023-01-20T12:25:58;8.90;;;6.03;;
6280;SDS011;3173;48.204;11.612;2023-01-20T12:30:53;10.27;;;6.53;;
6280;SDS011;3173;48.204;11.612;2023-01-20T12:33:21;11.05;;;7.30;;
6280;SDS011;3173;48.204;11.612;2023-01-20T12:36:35;11.23;;;7.07;;
6280;SDS011;3173;48.204;11.612;2023-01-20T12:38:48;11.32;;;7.22;;
6280;SDS011;3173;48.204;11.612;2023-01-20T12:41:24;11.35;;;6.70;;
6280;SDS011;3173;48.204;11.612;2023-01-20T12:44:03;11.70;;;7.15;;
6280;SDS011;3173;48.204;11.612;2023-01-20T12:46:45;13.70;;;8.02;;
6280;SDS011;3173;48.204;11.612;2023-01-20T13:14:50;16.80;;;8.77;;
6280;SDS011;3173;48.204;11.612;2023-01-20T13:17:23;16.30;;;9.25;;
6280;SDS011;3173;48.204;11.612;2023-01-20T13:19:55;13.40;;;9.32;;
6280;SDS011;3173;48.204;11.612;2023-01-20T13:22:23;14.75;;;9.35;;
6280;SDS011;3173;48.204;11.612;2023-01-20T13:24:50;12.77;;;9.00;;
6280;SDS011;3173;48.204;11.612;2023-01-20T13:27:35;14.55;;;9.25;;
6280;SDS011;3173;48.204;11.612;2023-01-20T13:30:06;15.13;;;10.18;;
6280;SDS011;3173;48.204;11.612;2023-01-20T13:37:40;14.63;;;9.77;;
6280;SDS011;3173;48.204;11.612;2023-01-20T13:48:29;15.73;;;9.98;;
6280;SDS011;3173;48.204;11.612;2023-01-20T13:53:39;14.43;;;10.13;;
6280;SDS011;3173;48.204;11.612;2023-01-20T13:56:27;16.27;;;10.85;;
6280;SDS011;3173;48.204;11.612;2023-01-20T13:58:55;17.83;;;11.48;;
6280;SDS011;3173;48.204;11.612;2023-01-20T14:01:24;19.00;;;12.20;;
6280;SDS011;3173;48.204;11.612;2023-01-20T14:04:04;17.80;;;12.13;;
6280;SDS011;3173;48.204;11.612;2023-01-20T14:06:31;20.65;;;12.40;;
6280;SDS011;3173;48.204;11.612;2023-01-20T14:08:59;19.55;;;12.50;;
6280;SDS011;3173;48.204;11.612;2023-01-20T14:11:26;16.75;;;10.75;;
6280;SDS011;3173;48.204;11.612;2023-01-20T14:13:53;21.73;;;12.38;;
6280;SDS011;3173;48.204;11.612;2023-01-20T14:16:33;20.27;;;13.13;;
6280;SDS011;3173;48.204;11.612;2023-01-20T14:19:12;20.15;;;12.43;;
6280;SDS011;3173;48.204;11.612;2023-01-20T14:21:41;22.40;;;12.23;;
6280;SDS011;3173;48.204;11.612;2023-01-20T14:27:16;23.45;;;14.15;;
6280;SDS011;3173;48.204;11.612;2023-01-20T14:29:39;18.88;;;11.50;;
6280;SDS011;3173;48.204;11.612;2023-01-20T14:34:43;22.80;;;13.85;;
6280;SDS011;3173;48.204;11.612;2023-01-20T14:37:21;23.02;;;12.82;;
6280;SDS011;3173;48.204;11.612;2023-01-20T14:39:48;25.90;;;12.65;;
6280;SDS011;3173;48.204;11.612;2023-01-20T14:42:19;28.48;;;13.88;;
6280;SDS011;3173;48.204;11.612;2023-01-20T14:44:46;23.25;;;13.60;;
6280;SDS011;3173;48.204;11.612;2023-01-20T14:47:12;22.08;;;12.88;;
6280;SDS011;3173;48.204;11.612;2023-01-20T14:49:38;22.27;;;13.60;;
6280;SDS011;3173;48.204;11.612;2023-01-20T14:52:07;24.27;;;13.00;;
6280;SDS011;3173;48.204;11.612;2023-01-20T14:54:37;22.90;;;13.75;;
6280;SDS011;3173;48.204;11.612;2023-01-20T14:59:41;27.75;;;12.35;;
6280;SDS011;3173;48.204;11.612;2023-01-20T15:02:13;23.45;;;13.45;;
6280;SDS011;3173;48.204;11.612;2023-01-20T15:04:41;20.88;;;13.00;;
6280;SDS011;3173;48.204;11.612;2023-01-20T15:07:11;24.27;;;13.50;;
6280;SDS011;3173;48.204;11.612;2023-01-20T15:09:40;21.90;;;12.93;;
6280;SDS011;3173;48.204;11.612;2023-01-20T15:15:25;17.83;;;11.98;;
6280;SDS011;3173;48.204;11.612;2023-01-20T15:20:29;23.60;;;13.32;;
6280;SDS011;3173;48.204;11.612;2023-01-20T15:22:57;21.40;;;11.77;;
6280;SDS011;3173;48.204;11.612;2023-01-20T15:25:23;22.83;;;12.85;;
6280;SDS011;3173;48.204;11.612;2023-01-20T15:27:53;23.15;;;12.38;;
6280;SDS011;3173;48.204;11.612;2023-01-20T15:30:20;21.52;;;13.45;;
6280;SDS011;3173;48.204;11.612;2023-01-20T15:32:52;21.95;;;13.00;;
6280;SDS011;3173;48.204;11.612;2023-01-20T15:35:20;26.27;;;13.95;;
6280;SDS011;3173;48.204;11.612;2023-01-20T15:37:52;23.50;;;14.15;;
6280;SDS011;3173;48.204;11.612;2023-01-20T15:40:21;21.30;;;13.50;;
6280;SDS011;3173;48.204;11.612;2023-01-20T15:42:48;24.23;;;14.57;;
6280;SDS011;3173;48.204;11.612;2023-01-20T15:45:15;24.45;;;14.93;;
6280;SDS011;3173;48.204;11.612;2023-01-20T15:47:42;23.58;;;13.38;;
6280;SDS011;3173;48.204;11.612;2023-01-20T15:50:15;28.88;;;13.75;;
6280;SDS011;3173;48.204;11.612;2023-01-20T15:52:42;23.10;;;14.13;;
6280;SDS011;3173;48.204;11.612;2023-01-20T15:55:12;26.25;;;14.48;;
6280;SDS011;3173;48.204;11.612;2023-01-20T15:57:38;24.88;;;14.18;;
6280;SDS011;3173;48.204;11.612;2023-01-20T16:00:05;22.15;;;12.70;;
6280;SDS011;3173;48.204;11.612;2023-01-20T16:02:31;24.33;;;14.05;;
6280;SDS011;3173;48.204;11.612;2023-01-20T16:04:57;19.93;;;12.53;;
6280;SDS011;3173;48.204;11.612;2023-01-20T16:07:23;23.80;;;13.73;;
6280;SDS011;3173;48.204;11.612;2023-01-20T16:09:49;28.13;;;14.43;;
6280;SDS011;3173;48.204;11.612;2023-01-20T16:12:15;21.87;;;13.90;;
6280;SDS011;3173;48.204;11.612;2023-01-20T16:14:42;22.48;;;14.13;;
6280;SDS011;3173;48.204;11.612;2023-01-20T16:17:18;24.95;;;14.68;;
6280;SDS011;3173;48.204;11.612;2023-01-20T16:19:45;24.48;;;14.13;;
6280;SDS011;3173;48.204;11.612;2023-01-20T16:22:11;20.63;;;12.75;;
6280;SDS011;3173;48.204;11.612;2023-01-20T16:24:38;25.83;;;14.43;;
6280;SDS011;3173;48.204;11.612;2023-01-20T16:27:11;25.77;;;13.38;;
6280;SDS011;3173;48.204;11.612;2023-01-20T16:29:39;23.33;;;13.50;;
6280;SDS011;3173;48.204;11.612;2023-01-20T16:32:05;17.63;;;11.40;;
6280;SDS011;3173;48.204;11.612;2023-01-20T16:34:31;19.35;;;11.85;;
6280;SDS011;3173;48.204;11.612;2023-01-20T16:36:57;21.95;;;12.85;;
6280;SDS011;3173;48.204;11.612;2023-01-20T16:39:23;26.88;;;13.52;;
6280;SDS011;3173;48.204;11.612;2023-01-20T16:41:49;23.67;;;13.30;;
6280;SDS011;3173;48.204;11.612;2023-01-20T16:44:15;24.50;;;13.02;;
6280;SDS011;3173;48.204;11.612;2023-01-20T16:46:42;19.45;;;12.65;;
6280;SDS011;3173;48.204;11.612;2023-01-20T16:49:11;21.85;;;12.77;;
6280;SDS011;3173;48.204;11.612;2023-01-20T16:51:37;21.25;;;12.85;;
6280;SDS011;3173;48.204;11.612;2023-01-20T16:54:03;23.55;;;13.00;;
6280;SDS011;3173;48.204;11.612;2023-01-20T16:56:30;23.35;;;13.27;;
6280;SDS011;3173;48.204;11.612;2023-01-20T16:58:58;21.33;;;13.23;;